Time;durP1;ratioP1;P1;durP2;ratioP2;P2;SDS_P1;SDS_P2;PMS_P1;PMS_P2;Temp;Humidity;BMP_temperature;BMP_pressure;BME280_temperature;BME280_humidity;BME280_pressure;Samples;Min_cycle;Max_cycle;Signal;HPM_P1;HPM_P2
2022/12/14 00:02:06;;;;;;;16.77;7.95;;;;;;;-7.45;71.03;100448.16;5063885;28;20045;-74
2022/12/14 00:04:32;;;;;;;22.73;11.18;;;;;;;-7.45;70.15;100446.47;5055393;28;20059;-74
2022/12/14 00:06:59;;;;;;;25.73;9.85;;;;;;;-7.27;68.55;100447.59;5057075;28;20040;-74
2022/12/14 00:09:26;;;;;;;20.08;9.85;;;;;;;-7.08;67.82;100445.34;5056252;28;20044;-74
2022/12/14 00:11:52;;;;;;;23.75;11.10;;;;;;;-7.20;67.53;100441.75;5048545;28;20127;-74
2022/12/14 00:14:19;;;;;;;23.65;10.52;;;;;;;-7.09;67.26;100441.06;5083219;27;20054;-74
2022/12/14 00:16:46;;;;;;;23.20;10.20;;;;;;;-7.18;67.81;100432.47;5033985;28;20131;-73
2022/12/14 00:19:13;;;;;;;25.38;11.38;;;;;;;-7.17;68.25;100439.28;5033112;28;20056;-75
2022/12/14 00:21:40;;;;;;;21.55;8.70;;;;;;;-7.19;67.78;100439.25;5037073;28;20390;-74
2022/12/14 00:24:07;;;;;;;28.23;11.25;;;;;;;-7.30;69.31;100437.38;5066503;28;20384;-73
2022/12/14 00:26:33;;;;;;;22.23;9.13;;;;;;;-7.09;68.76;100430.88;5077286;27;20043;-74
2022/12/14 00:29:01;;;;;;;21.85;10.90;;;;;;;-7.15;69.39;100435.03;5027643;28;20048;-74
2022/12/14 00:31:28;;;;;;;19.48;10.05;;;;;;;-7.35;69.57;100434.75;5043303;28;20467;-74
2022/12/14 00:33:56;;;;;;;20.42;9.00;;;;;;;-7.28;70.21;100436.56;5084367;27;20052;-74
2022/12/14 00:36:22;;;;;;;19.98;10.13;;;;;;;-7.03;69.53;100428.44;5057794;28;20044;-74
2022/12/14 00:38:49;;;;;;;19.48;9.35;;;;;;;-7.29;69.55;100434.00;5056626;28;20044;-75
2022/12/14 00:41:15;;;;;;;23.88;10.25;;;;;;;-7.49;71.97;100442.19;5055861;28;20051;-74
2022/12/14 00:43:42;;;;;;;21.52;9.90;;;;;;;-7.41;72.10;100440.59;5047138;28;20487;-74
2022/12/14 00:46:09;;;;;;;20.13;10.93;;;;;;;-7.34;74.16;100439.00;5056706;28;20056;-74
2022/12/14 00:48:36;;;;;;;22.30;10.88;;;;;;;-7.09;72.89;100430.88;5053396;28;20036;-73
2022/12/14 00:51:04;;;;;;;18.23;10.13;;;;;;;-6.79;71.38;100427.03;5046964;28;20052;-73
2022/12/14 00:53:30;;;;;;;16.75;10.30;;;;;;;-6.59;70.04;100430.72;5063080;28;20048;-74
2022/12/14 00:55:57;;;;;;;18.58;9.35;;;;;;;-6.36;69.01;100429.28;5065390;28;20051;-74
2022/12/14 00:58:26;;;;;;;20.40;9.95;;;;;;;-6.43;68.90;100427.50;5023484;28;20044;-74
2022/12/14 01:00:59;;;;;;;20.85;9.18;;;;;;;-6.42;67.90;100419.88;5029515;28;20041;-74
2022/12/14 01:03:25;;;;;;;15.10;8.98;;;;;;;-6.56;67.49;100425.63;5029750;28;20134;-74
2022/12/14 01:05:52;;;;;;;18.50;10.30;;;;;;;-6.65;67.76;100418.72;5019443;28;20051;-73
2022/12/14 01:08:20;;;;;;;20.23;11.07;;;;;;;-6.91;69.16;100415.03;5028850;28;20505;-73
2022/12/14 01:10:46;;;;;;;19.27;10.25;;;;;;;-7.03;70.79;100408.06;5035753;28;20055;-74
2022/12/14 01:13:13;;;;;;;19.23;10.48;;;;;;;-7.14;71.99;100403.66;5028574;28;20052;-73
2022/12/14 01:15:39;;;;;;;21.90;10.85;;;;;;;-7.34;73.88;100410.13;5063038;28;20051;-74
2022/12/14 01:18:06;;;;;;;28.55;12.27;;;;;;;-7.28;73.46;100408.56;5040279;28;20049;-74
2022/12/14 01:20:32;;;;;;;24.70;11.10;;;;;;;-7.27;74.81;100409.38;5019036;28;20048;-74
2022/12/14 01:22:59;;;;;;;24.38;10.38;;;;;;;-7.29;76.89;100403.44;5029353;28;20045;-75
2022/12/14 01:25:27;;;;;;;14.20;9.05;;;;;;;-7.07;76.35;100396.09;5042945;28;20091;-73
2022/12/14 01:27:53;;;;;;;26.58;11.90;;;;;;;-7.19;76.48;100406.13;5031277;28;20045;-72
2022/12/14 01:30:19;;;;;;;21.63;10.27;;;;;;;-6.92;74.94;100403.97;5062336;28;20048;-74
2022/12/14 01:32:46;;;;;;;23.70;10.45;;;;;;;-6.79;74.02;100404.09;5029228;28;20049;-74
2022/12/14 01:35:13;;;;;;;22.73;10.93;;;;;;;-6.73;72.49;100397.41;5028710;28;20509;-73
2022/12/14 01:37:39;;;;;;;29.30;9.98;;;;;;;-6.65;74.64;100395.78;5056735;28;20041;-73
2022/12/14 01:40:07;;;;;;;25.85;11.00;;;;;;;-6.53;72.42;100398.47;5058332;28;20432;-73
2022/12/14 01:42:36;;;;;;;18.80;9.77;;;;;;;-6.25;71.42;100386.91;5052202;28;20059;-73
2022/12/14 01:45:05;;;;;;;20.95;9.90;;;;;;;-6.25;71.21;100386.91;5062680;28;20045;-73
2022/12/14 01:47:41;;;;;;;24.02;13.07;;;;;;;-6.15;72.16;100388.69;5050573;28;20041;-73
2022/12/14 01:50:14;;;;;;;20.08;9.40;;;;;;;-5.96;70.86;100395.69;5056609;28;20043;-73
2022/12/14 01:52:43;;;;;;;22.92;10.25;;;;;;;-6.01;70.18;100392.22;5056346;28;20048;-73
2022/12/14 01:55:13;;;;;;;32.15;11.95;;;;;;;-6.11;71.04;100393.00;5057726;28;20040;-73
2022/12/14 01:57:47;;;;;;;24.52;11.45;;;;;;;-6.08;70.46;100385.34;5051161;28;20051;-73
2022/12/14 02:00:15;;;;;;;17.30;9.32;;;;;;;-5.89;69.86;100381.28;5052533;28;20131;-73
2022/12/14 02:02:46;;;;;;;20.73;10.38;;;;;;;-5.88;69.64;100375.34;5042494;28;20044;-73
2022/12/14 02:05:13;;;;;;;21.13;9.98;;;;;;;-5.98;70.06;100384.59;5052398;28;20059;-73
2022/12/14 02:07:43;;;;;;;25.25;10.77;;;;;;;-6.10;70.70;100379.41;5047510;28;20048;-73
2022/12/14 02:10:10;;;;;;;22.65;11.80;;;;;;;-6.21;71.00;100380.13;5075282;28;20431;-73
2022/12/14 02:12:41;;;;;;;24.83;12.57;;;;;;;-6.31;71.24;100376.59;5088625;28;20089;-73
2022/12/14 02:15:10;;;;;;;19.65;9.82;;;;;;;-6.11;70.54;100371.72;5042980;28;20041;-73
2022/12/14 02:17:37;;;;;;;19.75;11.05;;;;;;;-6.19;70.75;100365.66;5059371;28;20073;-73
2022/12/14 02:20:05;;;;;;;23.27;11.55;;;;;;;-6.14;70.66;100367.44;5075435;28;20268;-73
2022/12/14 02:22:59;;;;;;;18.20;9.80;;;;;;;-6.09;69.70;100368.31;5042003;28;20056;-73
2022/12/14 02:25:58;;;;;;;25.27;11.10;;;;;;;-6.26;69.90;100361.34;5052358;28;20048;-73
2022/12/14 02:28:46;;;;;;;19.02;9.30;;;;;;;-6.45;70.61;100363.72;5022411;28;20055;-73
2022/12/14 02:31:27;;;;;;;24.17;11.13;;;;;;;-6.24;71.03;100355.41;5063010;28;20527;-73
2022/12/14 02:33:58;;;;;;;18.02;9.68;;;;;;;-6.11;70.11;100359.81;5054169;28;20400;-73
2022/12/14 02:36:31;;;;;;;22.08;10.77;;;;;;;-6.06;69.51;100357.31;5052153;28;20044;-73
2022/12/14 02:39:09;;;;;;;27.10;11.50;;;;;;;-6.18;69.21;100360.59;5057717;28;20419;-73
2022/12/14 02:41:44;;;;;;;25.95;10.32;;;;;;;-6.37;70.12;100351.03;5065178;28;20121;-74
2022/12/14 02:44:23;;;;;;;21.02;10.05;;;;;;;-6.23;69.30;100352.03;5090148;27;20039;-73
2022/12/14 02:46:57;;;;;;;20.50;10.38;;;;;;;-6.42;69.35;100345.03;5049912;28;20044;-73
2022/12/14 02:49:38;;;;;;;22.00;10.68;;;;;;;-6.51;70.63;100355.16;5088452;28;20645;-73
2022/12/14 02:52:10;;;;;;;21.83;10.15;;;;;;;-6.36;70.81;100347.66;5080162;28;20054;-73
2022/12/14 02:54:44;;;;;;;27.30;12.75;;;;;;;-6.39;70.46;100341.69;5094602;27;20400;-73
2022/12/14 02:57:18;;;;;;;17.02;9.27;;;;;;;-6.42;71.34;100342.47;5060939;28;20048;-74
2022/12/14 02:59:45;;;;;;;17.00;9.15;;;;;;;-6.41;70.45;100337.41;5072624;28;20070;-72
2022/12/14 03:02:14;;;;;;;20.50;9.48;;;;;;;-6.37;69.66;100339.97;5073600;28;20040;-72
2022/12/14 03:04:44;;;;;;;17.98;10.57;;;;;;;-6.15;71.07;100337.66;5041168;28;20408;-73
2022/12/14 03:07:35;;;;;;;20.52;9.85;;;;;;;-6.38;71.95;100333.16;5050941;28;20044;-73
2022/12/14 03:10:10;;;;;;;21.88;11.38;;;;;;;-6.07;70.95;100324.97;5051327;28;20040;-73
2022/12/14 03:12:40;;;;;;;24.70;12.27;;;;;;;-6.20;70.47;100323.13;5065330;28;20047;-73
2022/12/14 03:15:10;;;;;;;26.73;12.20;;;;;;;-6.04;72.79;100323.28;5041107;28;20052;-73
2022/12/14 03:17:39;;;;;;;20.80;10.45;;;;;;;-6.41;73.21;100334.84;5051477;28;20071;-73
2022/12/14 03:20:10;;;;;;;22.88;11.95;;;;;;;-6.20;72.94;100329.09;5066987;28;20036;-73
2022/12/14 03:22:40;;;;;;;20.20;10.38;;;;;;;-6.26;71.80;100329.03;5063819;28;20094;-73
2022/12/14 03:25:11;;;;;;;20.15;10.25;;;;;;;-6.20;72.59;100321.44;5062275;28;20507;-73
2022/12/14 03:27:44;;;;;;;21.73;10.32;;;;;;;-6.25;73.53;100312.91;5057677;28;20139;-73
2022/12/14 03:30:14;;;;;;;20.90;11.82;;;;;;;-6.18;73.72;100312.13;5062057;28;20051;-73
2022/12/14 03:32:47;;;;;;;27.00;10.85;;;;;;;-6.18;72.71;100313.81;5067797;28;20047;-73
2022/12/14 03:35:18;;;;;;;20.40;10.63;;;;;;;-6.00;72.48;100304.59;5052905;28;20044;-73
2022/12/14 03:37:49;;;;;;;24.60;12.20;;;;;;;-5.87;73.58;100308.09;5061736;28;20415;-73
2022/12/14 03:40:17;;;;;;;22.73;11.05;;;;;;;-5.67;72.57;100295.44;5039962;28;20052;-73
2022/12/14 03:42:57;;;;;;;23.52;11.65;;;;;;;-5.65;72.07;100298.84;5050293;28;20131;-73
2022/12/14 03:45:29;;;;;;;27.13;12.90;;;;;;;-5.87;73.07;100297.06;5071674;28;20043;-73
2022/12/14 03:48:06;;;;;;;27.55;12.07;;;;;;;-5.77;72.37;100294.53;5050110;28;20500;-73
2022/12/14 03:50:40;;;;;;;26.02;12.40;;;;;;;-5.70;71.86;100297.97;5081850;28;20040;-73
2022/12/14 03:53:12;;;;;;;25.33;12.20;;;;;;;-5.92;72.02;100297.00;5053219;28;20048;-73
2022/12/14 03:55:46;;;;;;;22.98;10.32;;;;;;;-5.95;71.19;100299.56;5061170;28;20045;-73
2022/12/14 03:58:26;;;;;;;17.92;10.05;;;;;;;-5.80;70.54;100284.28;5040785;28;20052;-73
2022/12/14 04:00:57;;;;;;;23.00;10.73;;;;;;;-5.67;70.56;100278.44;5040376;28;20040;-73
2022/12/14 04:03:35;;;;;;;23.70;10.32;;;;;;;-5.37;69.89;100279.44;5037535;28;20417;-74
2022/12/14 04:06:07;;;;;;;22.83;11.40;;;;;;;-5.37;69.59;100277.75;5029791;28;20381;-73
2022/12/14 04:08:42;;;;;;;21.20;11.13;;;;;;;-5.33;70.47;100270.94;5020270;28;20045;-74
2022/12/14 04:19:42;;;;;;;21.88;10.93;;;;;;;-5.53;70.88;100253.81;5048721;28;20113;-74
2022/12/14 04:22:12;;;;;;;21.77;10.85;;;;;;;-5.39;69.87;100253.88;5054052;28;20052;-74
2022/12/14 04:27:33;;;;;;;23.63;11.82;;;;;;;-5.63;69.77;100246.97;5039965;28;20060;-73
2022/12/14 04:30:00;;;;;;;20.55;10.00;;;;;;;-5.84;71.41;100243.44;5065986;28;20048;-73
2022/12/14 04:32:32;;;;;;;22.35;12.02;;;;;;;-5.77;71.04;100237.50;5060498;28;20047;-73
2022/12/14 04:35:05;;;;;;;27.38;11.60;;;;;;;-6.34;75.17;100241.38;5060957;28;20051;-73
2022/12/14 04:37:35;;;;;;;25.90;11.90;;;;;;;-6.08;73.66;100226.28;5069622;28;20047;-73
2022/12/14 04:40:06;;;;;;;26.00;10.45;;;;;;;-6.05;72.65;100228.84;5075287;28;20051;-73
2022/12/14 04:42:35;;;;;;;22.02;12.50;;;;;;;-6.24;73.98;100229.53;5061771;28;20415;-73
2022/12/14 04:45:07;;;;;;;9.43;5.18;;;;;;;-6.49;76.00;100238.69;5048966;28;20408;-74
2022/12/14 04:47:41;;;;;;;28.65;14.40;;;;;;;-6.19;75.52;100222.78;5069758;28;20040;-74
2022/12/14 04:50:15;;;;;;;10.82;7.85;;;;;;;-6.03;74.73;100224.63;5047911;28;20575;-73
2022/12/14 04:52:47;;;;;;;25.80;11.77;;;;;;;-5.91;74.81;100215.31;5039070;28;20044;-73
2022/12/14 04:55:20;;;;;;;20.23;9.75;;;;;;;-6.06;73.81;100217.78;5052779;28;20047;-73
2022/12/14 04:57:51;;;;;;;18.83;10.27;;;;;;;-5.44;72.43;100210.44;5064727;28;20048;-73
2022/12/14 05:00:18;;;;;;;29.75;12.23;;;;;;;-5.15;70.56;100202.88;5055579;28;20044;-75
2022/12/14 05:02:59;;;;;;;26.48;13.27;;;;;;;-5.52;70.70;100209.56;5076794;28;20050;-73
2022/12/14 05:05:35;;;;;;;27.40;12.30;;;;;;;-5.96;70.74;100211.91;5039870;28;20488;-73
2022/12/14 05:08:10;;;;;;;26.58;12.43;;;;;;;-6.20;69.96;100211.72;5048706;28;20048;-73
2022/12/14 05:10:43;;;;;;;27.38;13.52;;;;;;;-6.36;70.28;100212.47;5038180;28;20116;-73
2022/12/14 05:13:14;;;;;;;30.20;13.23;;;;;;;-6.43;70.75;100213.25;5053196;28;20051;-73
2022/12/14 05:15:44;;;;;;;21.98;10.05;;;;;;;-6.52;70.77;100208.94;5047356;28;20059;-73
2022/12/14 05:18:11;;;;;;;25.65;13.35;;;;;;;-6.56;70.75;100208.88;5047891;28;20071;-73
2022/12/14 05:20:39;;;;;;;34.58;14.00;;;;;;;-6.57;70.34;100204.63;5053857;28;20048;-73
2022/12/14 05:23:05;;;;;;;20.95;11.98;;;;;;;-6.72;70.27;100196.84;5047903;28;20071;-73
2022/12/14 05:25:32;;;;;;;26.02;12.70;;;;;;;-6.77;69.94;100204.47;5048774;28;20052;-73
2022/12/14 05:27:58;;;;;;;25.20;11.43;;;;;;;-6.60;69.74;100200.34;5061180;28;20052;-73
2022/12/14 05:30:25;;;;;;;31.40;13.15;;;;;;;-6.75;69.38;100199.34;5055207;28;20067;-74
2022/12/14 05:32:52;;;;;;;21.88;10.63;;;;;;;-6.90;69.07;100203.47;5063235;28;20045;-73
2022/12/14 05:35:19;;;;;;;26.95;11.73;;;;;;;-6.84;68.78;100195.06;5047986;28;20041;-73
2022/12/14 05:37:47;;;;;;;24.10;12.00;;;;;;;-7.00;68.21;100183.00;5046527;28;20063;-73
2022/12/14 05:40:14;;;;;;;24.55;11.32;;;;;;;-6.93;67.69;100180.53;5065940;28;20059;-73
2022/12/14 05:42:40;;;;;;;31.20;12.35;;;;;;;-7.27;67.35;100188.66;5052041;28;20064;-73
2022/12/14 05:45:09;;;;;;;25.45;11.15;;;;;;;-7.39;68.15;100189.38;5053582;28;20503;-73
2022/12/14 05:47:36;;;;;;;19.27;8.23;;;;;;;-7.21;69.60;100180.22;5048138;28;20070;-73
2022/12/14 05:50:02;;;;;;;22.95;11.15;;;;;;;-7.16;68.64;100186.22;5047427;28;20045;-73
2022/12/14 05:52:29;;;;;;;21.30;10.88;;;;;;;-7.33;67.59;100172.44;5037406;28;20397;-73
2022/12/14 05:54:57;;;;;;;19.88;9.93;;;;;;;-7.39;69.59;100178.34;5048646;28;20507;-73
2022/12/14 05:57:23;;;;;;;23.67;10.38;;;;;;;-7.09;68.52;100172.69;5037554;28;20037;-73
2022/12/14 05:59:50;;;;;;;20.05;10.35;;;;;;;-7.21;67.48;100178.53;5054503;28;20040;-73
2022/12/14 06:02:16;;;;;;;23.50;11.02;;;;;;;-7.35;68.15;100172.41;5085202;28;20486;-73
2022/12/14 06:04:43;;;;;;;19.60;9.32;;;;;;;-7.42;66.86;100168.97;5068682;28;20688;-73
2022/12/14 06:07:11;;;;;;;31.08;11.90;;;;;;;-7.41;67.17;100172.38;5057133;28;20492;-73
2022/12/14 06:09:38;;;;;;;27.30;11.25;;;;;;;-7.17;66.67;100167.56;5048325;28;20049;-74
2022/12/14 06:12:06;;;;;;;19.42;9.15;;;;;;;-7.21;66.03;100170.03;5043832;28;20381;-74
2022/12/14 06:14:32;;;;;;;16.50;9.10;;;;;;;-7.47;65.08;100159.56;5038087;28;20064;-74
2022/12/14 06:17:00;;;;;;;19.60;9.75;;;;;;;-7.31;66.27;100156.34;5045976;28;20040;-73
2022/12/14 06:19:26;;;;;;;19.15;11.23;;;;;;;-7.55;65.69;100167.13;5061240;28;20048;-73
2022/12/14 06:21:52;;;;;;;24.90;11.55;;;;;;;-7.47;65.85;100173.16;5047846;28;20040;-73
2022/12/14 06:24:19;;;;;;;19.45;11.60;;;;;;;-7.73;67.56;100160.97;5067191;28;20048;-73
2022/12/14 06:26:46;;;;;;;20.08;9.95;;;;;;;-7.62;67.75;100167.91;5068917;28;20052;-73
2022/12/14 06:29:16;;;;;;;22.05;10.30;;;;;;;-7.77;67.64;100165.16;5058052;28;20050;-73
2022/12/14 06:31:43;;;;;;;34.25;11.80;;;;;;;-8.06;68.00;100157.16;5055817;28;20724;-73
2022/12/14 06:34:10;;;;;;;22.27;10.70;;;;;;;-7.86;68.12;100159.94;5072664;28;20408;-73
2022/12/14 06:36:40;;;;;;;24.90;10.20;;;;;;;-7.75;67.97;100148.19;5049796;28;20043;-73
2022/12/14 06:39:08;;;;;;;28.98;11.00;;;;;;;-7.61;67.13;100148.38;5081713;28;20074;-73
2022/12/14 06:41:35;;;;;;;18.58;9.68;;;;;;;-7.76;65.64;100143.97;5054006;28;20052;-73
2022/12/14 06:44:06;;;;;;;23.33;11.77;;;;;;;-7.72;65.36;100142.31;5042394;28;20500;-73
2022/12/14 06:46:34;;;;;;;18.30;10.05;;;;;;;-7.69;65.11;100144.88;5069298;28;20040;-74
2022/12/14 06:49:01;;;;;;;22.02;9.63;;;;;;;-7.73;65.05;100141.44;5061794;28;20045;-73
2022/12/14 06:51:28;;;;;;;20.77;10.70;;;;;;;-7.85;65.66;100141.28;5041956;28;20048;-73
2022/12/14 06:53:56;;;;;;;25.60;10.80;;;;;;;-8.15;67.86;100135.81;5051521;28;20672;-73
2022/12/14 06:56:25;;;;;;;22.15;10.18;;;;;;;-8.38;69.40;100132.97;5074926;28;20056;-73
2022/12/14 06:58:53;;;;;;;21.27;10.50;;;;;;;-8.22;69.40;100134.00;5026493;28;20049;-73
2022/12/14 07:01:21;;;;;;;23.15;10.68;;;;;;;-8.49;69.53;100139.59;5057532;28;20049;-73
2022/12/14 07:03:50;;;;;;;21.23;10.50;;;;;;;-8.69;69.74;100124.06;5062066;28;20074;-73
2022/12/14 07:06:17;;;;;;;19.13;9.32;;;;;;;-8.42;69.07;100121.03;5032140;28;20045;-73
2022/12/14 07:08:44;;;;;;;22.02;11.18;;;;;;;-8.60;69.66;100121.63;5058716;28;20141;-73
2022/12/14 07:11:12;;;;;;;22.05;9.93;;;;;;;-8.46;68.75;100114.22;5031753;28;20400;-73
2022/12/14 07:13:39;;;;;;;18.02;9.25;;;;;;;-8.20;67.55;100106.94;5051195;28;20057;-73
2022/12/14 07:16:07;;;;;;;14.50;7.53;;;;;;;-8.08;67.27;100113.00;5055910;28;20063;-73
2022/12/14 07:18:34;;;;;;;17.02;8.55;;;;;;;-8.07;67.78;100109.66;5048413;28;20053;-73
2022/12/14 07:21:04;;;;;;;23.45;9.27;;;;;;;-8.01;68.38;100102.06;5081168;28;20407;-73
2022/12/14 07:23:32;;;;;;;21.60;8.88;;;;;;;-8.09;68.56;100108.75;5087925;28;20048;-73
2022/12/14 07:26:03;;;;;;;18.15;8.93;;;;;;;-8.16;69.63;100101.88;5042823;28;20052;-73
2022/12/14 07:28:29;;;;;;;14.15;7.53;;;;;;;-7.77;69.47;100104.06;5050260;28;20045;-73
2022/12/14 07:30:56;;;;;;;15.57;8.80;;;;;;;-7.76;68.71;100094.75;5064546;28;20596;-73
2022/12/14 07:33:23;;;;;;;14.77;8.50;;;;;;;-7.90;72.53;100103.06;5076256;28;20048;-73
2022/12/14 07:35:50;;;;;;;17.02;8.35;;;;;;;-7.45;71.20;100096.78;5087712;28;20050;-74
2022/12/14 07:38:18;;;;;;;22.35;10.25;;;;;;;-7.33;69.40;100094.38;5058264;28;20080;-74
2022/12/14 07:40:45;;;;;;;19.88;9.88;;;;;;;-7.28;68.43;100091.88;5059894;28;20089;-74
2022/12/14 07:43:12;;;;;;;25.52;10.27;;;;;;;-7.16;67.24;100095.38;5062315;28;20064;-74
2022/12/14 07:45:38;;;;;;;20.90;9.55;;;;;;;-7.31;66.77;100090.13;5072140;28;20507;-74
2022/12/14 07:48:06;;;;;;;19.92;9.50;;;;;;;-7.24;66.09;100089.34;5084666;27;20039;-73
2022/12/14 07:50:33;;;;;;;34.88;10.48;;;;;;;-7.28;66.00;100087.63;5070613;27;20049;-74
2022/12/14 07:53:00;;;;;;;22.60;10.10;;;;;;;-7.21;65.88;100091.09;5064593;28;20444;-74
2022/12/14 07:55:28;;;;;;;20.80;9.73;;;;;;;-7.23;66.14;100093.59;5057647;28;20429;-74
2022/12/14 07:57:55;;;;;;;18.90;9.23;;;;;;;-7.13;65.95;100082.66;5050032;28;20411;-74
2022/12/14 08:00:22;;;;;;;27.63;8.77;;;;;;;-7.16;65.85;100085.16;5064228;28;20043;-74
2022/12/14 08:02:48;;;;;;;19.10;8.82;;;;;;;-7.08;65.52;100086.09;5064502;28;20514;-74
2022/12/14 08:05:15;;;;;;;35.60;10.25;;;;;;;-6.96;65.47;100081.13;5048652;28;20051;-74
2022/12/14 08:07:41;;;;;;;23.60;9.70;;;;;;;-6.95;65.32;100077.69;5046242;28;20044;-74
2022/12/14 08:10:08;;;;;;;19.58;9.23;;;;;;;-6.97;65.11;100076.84;5039042;28;20134;-74
2022/12/14 08:12:36;;;;;;;16.45;8.43;;;;;;;-7.29;66.06;100077.41;5052723;28;20043;-74
2022/12/14 08:15:03;;;;;;;32.78;11.85;;;;;;;-7.43;68.36;100077.28;5060739;28;20044;-74
2022/12/14 08:17:31;;;;;;;28.88;10.30;;;;;;;-7.21;67.69;100075.78;5038556;28;20044;-77
2022/12/14 08:19:58;;;;;;;20.23;9.80;;;;;;;-7.31;67.94;100074.84;5048296;28;20048;-75
2022/12/14 08:22:24;;;;;;;24.02;10.30;;;;;;;-7.15;68.00;100058.88;5064027;28;20174;-74
2022/12/14 08:24:50;;;;;;;25.95;10.90;;;;;;;-7.00;67.79;100061.53;5040341;28;20041;-74
2022/12/14 08:27:17;;;;;;;19.15;9.57;;;;;;;-6.78;67.33;100060.00;5062423;28;20059;-74
2022/12/14 08:29:45;;;;;;;25.90;10.57;;;;;;;-6.61;67.05;100057.53;5063294;28;20055;-74
2022/12/14 08:32:11;;;;;;;24.45;10.88;;;;;;;-6.70;66.70;100049.84;5045896;28;20488;-74
2022/12/14 08:34:38;;;;;;;24.48;10.77;;;;;;;-6.37;66.45;100057.72;5065620;28;20043;-71
2022/12/14 08:37:04;;;;;;;23.73;10.15;;;;;;;-6.14;66.52;100053.56;5052667;28;20044;-71
2022/12/14 08:39:30;;;;;;;25.38;12.15;;;;;;;-5.86;66.17;100051.97;5036510;28;20048;-73
2022/12/14 08:41:57;;;;;;;25.75;10.75;;;;;;;-5.82;65.56;100055.34;5074147;28;20040;-73
2022/12/14 08:44:23;;;;;;;28.02;12.57;;;;;;;-5.63;65.88;100057.13;5049049;28;21436;-71
2022/12/14 08:46:51;;;;;;;26.63;11.90;;;;;;;-5.61;67.18;100042.63;5047173;28;20617;-70
2022/12/14 08:49:18;;;;;;;22.23;10.57;;;;;;;-5.69;66.24;100042.63;5053903;28;20053;-71
2022/12/14 08:51:44;;;;;;;25.55;11.15;;;;;;;-5.49;66.73;100032.44;5061310;28;20126;-71
2022/12/14 08:54:11;;;;;;;21.50;11.25;;;;;;;-5.43;66.73;100035.84;5080609;27;20051;-71
2022/12/14 08:56:38;;;;;;;26.98;11.90;;;;;;;-5.33;67.04;100030.78;5097015;27;20047;-70
2022/12/14 08:59:04;;;;;;;27.33;12.27;;;;;;;-5.34;67.19;100035.03;5056535;28;20056;-70
2022/12/14 09:01:31;;;;;;;22.23;11.68;;;;;;;-5.13;68.64;100031.63;5070712;28;20048;-70
2022/12/14 09:04:02;;;;;;;39.70;13.48;;;;;;;-4.89;68.03;100028.22;5049387;28;20044;-70
2022/12/14 09:06:28;;;;;;;30.02;13.10;;;;;;;-4.77;68.94;100017.97;5061610;28;20039;-71
2022/12/14 09:08:56;;;;;;;45.15;13.85;;;;;;;-4.69;67.42;100016.25;5057240;28;20404;-70
2022/12/14 09:11:22;;;;;;;37.67;13.20;;;;;;;-4.68;67.59;100021.34;5048706;28;20044;-70
2022/12/14 09:13:53;;;;;;;32.03;12.68;;;;;;;-4.34;67.04;100023.84;5049311;28;20063;-70
2022/12/14 09:16:21;;;;;;;35.22;15.45;;;;;;;-4.23;65.70;100016.97;5054141;28;20048;-70
2022/12/14 09:18:49;;;;;;;37.30;15.68;;;;;;;-4.14;65.09;100009.28;5060778;28;20554;-70
2022/12/14 09:21:17;;;;;;;28.02;13.25;;;;;;;-4.12;65.12;100018.63;5048109;28;20056;-70
2022/12/14 09:23:44;;;;;;;34.70;14.90;;;;;;;-3.98;66.03;100004.06;5042524;28;20481;-70
2022/12/14 09:26:13;;;;;;;48.35;20.83;;;;;;;-3.85;65.89;100012.53;5076169;28;20052;-70
2022/12/14 09:28:41;;;;;;;37.13;16.77;;;;;;;-3.97;65.82;100012.59;5048488;28;20454;-70
2022/12/14 09:31:15;;;;;;;41.05;14.15;;;;;;;-3.72;65.95;100010.75;5037840;28;20051;-69
2022/12/14 09:33:41;;;;;;;29.30;13.15;;;;;;;-3.63;65.77;100010.72;5047906;28;20547;-69
2022/12/14 09:36:12;;;;;;;25.10;12.35;;;;;;;-3.64;65.68;100001.31;5038756;28;20044;-68
2022/12/14 09:38:40;;;;;;;30.02;13.23;;;;;;;-3.61;66.39;100001.28;5085432;28;20427;-68
2022/12/14 09:41:18;;;;;;;32.72;16.00;;;;;;;-3.70;66.38;99998.81;5078955;28;20055;-69
2022/12/14 09:43:53;;;;;;;34.13;15.65;;;;;;;-3.62;66.77;100008.13;5044873;28;20450;-68
2022/12/14 09:46:32;;;;;;;32.10;15.15;;;;;;;-3.45;66.20;100000.34;5071489;28;20059;-69
2022/12/14 09:49:01;;;;;;;32.92;15.57;;;;;;;-3.69;65.92;100000.47;5035655;28;20067;-70
2022/12/14 09:51:33;;;;;;;31.10;14.90;;;;;;;-3.95;66.58;100001.47;5047917;28;20059;-68
2022/12/14 09:54:05;;;;;;;30.50;16.42;;;;;;;-3.68;67.09;99997.91;5055690;28;20506;-69
2022/12/14 09:56:33;;;;;;;35.78;18.45;;;;;;;-3.64;67.37;99988.50;5077717;28;20048;-68
2022/12/14 09:59:01;;;;;;;33.30;17.00;;;;;;;-3.67;68.59;99983.41;5088039;27;20078;-68
2022/12/14 10:01:54;;;;;;;32.38;15.02;;;;;;;-3.56;68.46;99982.47;5076917;28;20079;-68
2022/12/14 10:04:36;;;;;;;29.85;15.50;;;;;;;-3.35;67.59;99980.59;5057012;28;20064;-68
2022/12/14 10:07:11;;;;;;;32.05;15.77;;;;;;;-3.23;67.81;99965.13;5074784;28;20040;-68
2022/12/14 10:09:47;;;;;;;34.53;16.17;;;;;;;-3.19;67.61;99967.66;5064820;28;20044;-68
2022/12/14 10:12:23;;;;;;;30.55;13.90;;;;;;;-3.07;66.93;99964.97;5075687;28;20044;-70
2022/12/14 10:15:08;;;;;;;34.80;17.20;;;;;;;-3.06;66.12;99966.69;5072766;28;20039;-69
2022/12/14 10:17:50;;;;;;;35.50;14.88;;;;;;;-3.15;67.30;99960.78;5061739;28;20049;-69
2022/12/14 10:20:23;;;;;;;36.22;16.83;;;;;;;-2.93;67.07;99956.31;5056700;28;20062;-69
2022/12/14 10:22:52;;;;;;;32.47;16.35;;;;;;;-2.61;66.80;99951.69;5063568;28;20044;-70
2022/12/14 10:25:23;;;;;;;29.52;15.60;;;;;;;-2.76;66.46;99952.72;5081612;28;20048;-69
2022/12/14 10:27:57;;;;;;;35.58;17.27;;;;;;;-2.71;67.38;99950.97;5041569;28;20548;-69
2022/12/14 10:30:23;;;;;;;38.90;16.75;;;;;;;-2.54;66.15;99949.03;5056032;28;20052;-69
2022/12/14 10:32:54;;;;;;;35.40;16.52;;;;;;;-2.39;66.38;99945.44;5051075;28;20569;-70
2022/12/14 10:35:29;;;;;;;30.80;16.05;;;;;;;-2.62;65.88;99940.56;5051651;28;20060;-70
2022/12/14 10:38:01;;;;;;;30.83;15.60;;;;;;;-2.73;66.00;99938.97;5051612;28;20071;-70
2022/12/14 10:40:30;;;;;;;;;;;;;;;-2.74;66.28;99940.72;5037251;28;20044;-70
2022/12/14 10:43:12;;;;;;;38.42;17.55;;;;;;;-2.57;65.86;99936.25;5046078;27;20383;-70
2022/12/14 10:45:46;;;;;;;44.47;16.30;;;;;;;-2.55;65.92;99933.69;5056495;27;20703;-69
2022/12/14 10:48:30;;;;;;;32.25;14.88;;;;;;;-2.41;66.85;99930.94;5062681;28;20733;-70
2022/12/14 10:51:01;;;;;;;28.63;14.73;;;;;;;-2.29;66.85;99929.03;5041934;28;20039;-70
2022/12/14 10:53:36;;;;;;;36.20;15.52;;;;;;;-2.16;66.56;99920.34;5050803;28;20059;-70
2022/12/14 10:56:09;;;;;;;31.63;15.32;;;;;;;-1.93;66.70;99922.59;5040890;28;20076;-71
2022/12/14 10:58:35;;;;;;;29.98;15.18;;;;;;;-1.99;65.12;99930.38;5050558;28;20052;-71
2022/12/14 11:01:02;;;;;;;35.95;15.38;;;;;;;-2.10;65.07;99925.38;5047971;27;20049;-71
2022/12/14 11:03:28;;;;;;;34.38;16.27;;;;;;;-2.00;65.40;99918.41;5086592;27;20145;-70
2022/12/14 11:05:59;;;;;;;31.67;15.57;;;;;;;-2.13;65.60;99925.41;5090781;27;20071;-70
2022/12/14 11:08:41;;;;;;;33.63;15.80;;;;;;;-1.92;65.65;99915.72;5052620;27;20040;-70
2022/12/14 11:11:13;;;;;;;34.58;17.27;;;;;;;-1.80;66.61;99915.53;5060068;28;20531;-70
2022/12/14 11:13:47;;;;;;;34.17;15.68;;;;;;;-1.65;65.46;99923.00;5067987;28;20055;-71
2022/12/14 11:16:24;;;;;;;37.17;17.08;;;;;;;-1.50;65.66;99922.78;5058026;27;20162;-71
2022/12/14 11:18:57;;;;;;;34.35;15.75;;;;;;;-1.55;65.33;99915.13;5044044;28;20037;-71
2022/12/14 11:21:30;;;;;;;32.28;15.90;;;;;;;-1.57;65.84;99916.03;5077439;28;20041;-71
2022/12/14 11:23:57;;;;;;;32.60;15.60;;;;;;;-1.54;65.55;99910.84;5087435;28;20040;-71
2022/12/14 11:26:29;;;;;;;30.98;16.15;;;;;;;-1.62;65.14;99917.81;5077085;28;20051;-71
2022/12/14 11:28:57;;;;;;;;;;;;;;;-1.53;64.46;99910.84;5064456;28;20036;-71
2022/12/14 11:31:28;;;;;;;30.90;15.60;;;;;;;-1.44;65.08;99903.84;5050724;28;19933;-70
2022/12/14 11:33:57;;;;;;;39.60;18.45;;;;;;;-1.39;65.35;99897.75;5041172;28;20407;-70
2022/12/14 11:36:25;;;;;;;37.38;17.85;;;;;;;-1.40;65.35;99897.78;5050311;28;20044;-70